createdAt,value
2023-05-14T00:01:13.555Z,95230.94
2023-05-14T00:03:41.797Z,95225.66
2023-05-14T00:06:11.361Z,95230.63
2023-05-14T00:08:39.597Z,95226.47
2023-05-14T00:11:08.942Z,95230.69
2023-05-14T00:13:37.583Z,95216.63
2023-05-14T00:16:06.358Z,95221.84
2023-05-14T00:18:34.888Z,95216.34
2023-05-14T00:21:03.181Z,95217.19
2023-05-14T00:23:32.928Z,95220.06
2023-05-14T00:26:01.029Z,95215.31
2023-05-14T00:28:29.492Z,95217.63
2023-05-14T00:30:57.989Z,95218.63
2023-05-14T00:33:26.082Z,95218.88
2023-05-14T00:35:54.602Z,95218.13
2023-05-14T00:38:24.292Z,95217.81
2023-05-14T00:40:53.665Z,95212.53
2023-05-14T00:43:24.040Z,95215.38
2023-05-14T00:45:54.477Z,95216.69
2023-05-14T00:48:24.162Z,95226.50
2023-05-14T00:50:52.870Z,95219.81
2023-05-14T00:53:21.995Z,95213.25
2023-05-14T00:55:51.436Z,95206.38
2023-05-14T00:58:23.211Z,95214.84
2023-05-14T01:00:52.254Z,95206.66
2023-05-14T01:03:20.777Z,95202.13
2023-05-14T01:05:58.888Z,95202.81
2023-05-14T01:08:36.642Z,95201.97
2023-05-14T01:11:12.452Z,95203.81
2023-05-14T01:13:52.773Z,95204.06
2023-05-14T01:16:22.805Z,95205.84
2023-05-14T01:18:52.591Z,95202.22
2023-05-14T01:21:37.194Z,95207.75
2023-05-14T01:24:06.831Z,95202.72
2023-05-14T01:30:45.866Z,95197.00
2023-05-14T01:33:18.444Z,95197.47
2023-05-14T01:35:48.605Z,95194.56
2023-05-14T01:38:21.305Z,95197.69
2023-05-14T01:40:51.808Z,95200.81
2023-05-14T01:43:20.630Z,95195.81
2023-05-14T01:45:48.876Z,95196.09
2023-05-14T01:48:16.942Z,95198.97
2023-05-14T01:50:45.009Z,95197.38
2023-05-14T01:53:13.484Z,95193.38
2023-05-14T01:55:42.887Z,95189.94
2023-05-14T01:58:10.908Z,95180.50
2023-05-14T02:00:39.293Z,95182.97
2023-05-14T02:03:07.498Z,95181.13
2023-05-14T02:05:35.609Z,95178.13
2023-05-14T02:08:03.840Z,95185.47
2023-05-14T02:10:31.913Z,95172.78
2023-05-14T02:13:01.399Z,95178.84
2023-05-14T02:15:29.421Z,95172.06
2023-05-14T02:17:57.673Z,95180.56
2023-05-14T02:20:25.959Z,95175.84
2023-05-14T02:22:53.921Z,95176.63
2023-05-14T02:25:22.269Z,95175.91
2023-05-14T02:27:50.761Z,95171.41
2023-05-14T02:30:20.750Z,95170.69
2023-05-14T02:32:48.868Z,95174.53
2023-05-14T02:35:17.200Z,95185.34
2023-05-14T02:37:45.133Z,95177.19
2023-05-14T02:40:13.611Z,95173.19
2023-05-14T02:42:41.912Z,95173.66
2023-05-14T02:45:10.497Z,95178.66
2023-05-14T02:47:39.862Z,95170.22
2023-05-14T02:50:09.103Z,95170.22
2023-05-14T02:52:37.175Z,95172.78
2023-05-14T02:55:06.223Z,95172.72
2023-05-14T02:57:34.351Z,95171.66
2023-05-14T03:00:02.368Z,95163.41
2023-05-14T03:02:33.024Z,95166.31
2023-05-14T03:05:03.265Z,95163.16
2023-05-14T03:07:31.657Z,95164.72
2023-05-14T03:10:00.901Z,95160.22
2023-05-14T03:12:28.841Z,95158.66
2023-05-14T03:14:56.824Z,95161.75
2023-05-14T03:17:24.943Z,95159.91
2023-05-14T03:19:53.240Z,95164.81
2023-05-14T03:22:22.814Z,95157.91
2023-05-14T03:24:50.814Z,95157.00
2023-05-14T03:27:18.736Z,95153.59
2023-05-14T03:29:47.148Z,95153.00
2023-05-14T03:32:16.338Z,95156.50
2023-05-14T03:34:44.906Z,95155.16
2023-05-14T03:37:13.562Z,95156.09
2023-05-14T03:39:43.197Z,95156.09
2023-05-14T03:42:11.105Z,95152.09
2023-05-14T03:44:39.060Z,95150.25
2023-05-14T03:47:07.060Z,95146.34
2023-05-14T03:49:35.380Z,95144.19
2023-05-14T03:52:03.725Z,95149.78
2023-05-14T03:54:31.692Z,95149.78
2023-05-14T03:57:02.796Z,95146.94
2023-05-14T03:59:31.299Z,95138.75
2023-05-14T04:01:59.405Z,95141.41
2023-05-14T04:04:27.656Z,95143.50
2023-05-14T04:06:56.308Z,95139.72
2023-05-14T04:09:24.426Z,95139.22
2023-05-14T04:11:52.653Z,95141.81
2023-05-14T04:14:23.633Z,95151.00
2023-05-14T04:16:51.694Z,95143.88
2023-05-14T04:19:20.540Z,95142.84
2023-05-14T04:21:48.526Z,95146.78
2023-05-14T04:24:19.510Z,95142.69
2023-05-14T04:26:48.161Z,95138.72
2023-05-14T04:29:16.355Z,95142.47
2023-05-14T04:31:46.673Z,95144.38
2023-05-14T04:34:14.721Z,95153.38
2023-05-14T04:36:43.157Z,95148.59
2023-05-14T04:39:12.777Z,95149.97
2023-05-14T04:41:40.788Z,95148.53
2023-05-14T04:44:09.100Z,95150.56
2023-05-14T04:46:37.607Z,95154.84
2023-05-14T04:49:07.962Z,95147.00
2023-05-14T04:51:36.245Z,95141.50
2023-05-14T04:54:04.413Z,95154.78
2023-05-14T04:56:32.422Z,95148.97
2023-05-14T04:59:00.649Z,95155.50
2023-05-14T05:01:28.918Z,95149.97
2023-05-14T05:03:57.828Z,95154.84
2023-05-14T05:06:27.542Z,95148.28
2023-05-14T05:08:57.268Z,95152.28
2023-05-14T05:11:25.261Z,95153.13
2023-05-14T05:13:53.337Z,95152.41
2023-05-14T05:16:21.336Z,95149.88
2023-05-14T05:18:49.773Z,95152.25
2023-05-14T05:21:17.796Z,95153.84
2023-05-14T05:23:47.224Z,95152.63
2023-05-14T05:26:15.412Z,95151.84
2023-05-14T05:28:43.425Z,95150.50
2023-05-14T05:31:11.680Z,95157.34
2023-05-14T05:33:40.206Z,95158.41
2023-05-14T05:36:08.655Z,95158.16
2023-05-14T05:38:36.833Z,95157.66
2023-05-14T05:41:07.134Z,95152.44
2023-05-14T05:43:35.369Z,95151.72
2023-05-14T05:46:03.458Z,95155.41
2023-05-14T05:48:31.679Z,95154.81
2023-05-14T05:51:00.089Z,95155.06
2023-05-14T05:53:28.290Z,95159.06
2023-05-14T05:55:56.261Z,95161.16
2023-05-14T05:58:26.321Z,95160.84
2023-05-14T06:00:55.122Z,95161.66
2023-05-14T06:03:23.940Z,95165.00
2023-05-14T06:05:52.666Z,95165.09
2023-05-14T06:08:20.906Z,95168.59
2023-05-14T06:10:49.302Z,95166.59
2023-05-14T06:13:17.608Z,95163.91
2023-05-14T06:15:47.050Z,95156.47
2023-05-14T06:18:15.180Z,95161.50
2023-05-14T06:20:43.352Z,95161.28
2023-05-14T06:23:12.435Z,95162.56
2023-05-14T06:25:40.435Z,95160.22
2023-05-14T06:28:08.599Z,95162.44
2023-05-14T06:30:36.873Z,95165.72
2023-05-14T06:33:06.561Z,95150.00
2023-05-14T06:35:35.809Z,95147.63
2023-05-14T06:38:03.834Z,95153.44
2023-05-14T06:40:32.209Z,95144.25
2023-05-14T06:43:00.327Z,95152.28
2023-05-14T06:45:28.467Z,95153.47
2023-05-14T06:47:56.756Z,95147.75
2023-05-14T06:50:26.530Z,95149.94
2023-05-14T06:52:54.972Z,95152.94
2023-05-14T06:55:23.435Z,95149.31
2023-05-14T06:57:51.795Z,95153.59
2023-05-14T07:00:21.187Z,95157.59
2023-05-14T07:02:49.289Z,95157.59
2023-05-14T07:05:17.337Z,95159.91
2023-05-14T07:07:46.780Z,95155.44
2023-05-14T07:10:15.145Z,95154.09
2023-05-14T07:12:44.165Z,95166.72
2023-05-14T07:15:12.913Z,95161.69
2023-05-14T07:17:41.093Z,95152.59
2023-05-14T07:20:10.248Z,95154.31
2023-05-14T07:22:38.208Z,95152.47
2023-05-14T07:25:08.437Z,95143.59
2023-05-14T07:27:37.390Z,95134.31
2023-05-14T07:30:06.349Z,95133.94
2023-05-14T07:32:34.831Z,95131.91
2023-05-14T07:35:02.845Z,95130.84
2023-05-14T07:37:30.866Z,95116.88
2023-05-14T07:39:58.799Z,95133.50
2023-05-14T07:42:35.956Z,95124.78
2023-05-14T07:45:05.459Z,95131.69
2023-05-14T07:47:34.893Z,95131.34
2023-05-14T07:50:03.504Z,95128.69
2023-05-14T07:52:33.772Z,95136.59
2023-05-14T07:55:03.910Z,95132.56
2023-05-14T07:57:33.469Z,95124.56
2023-05-14T08:00:01.409Z,95116.88
2023-05-14T08:02:29.598Z,95119.25
2023-05-14T08:04:59.163Z,95113.22
2023-05-14T08:07:28.719Z,95117.44
2023-05-14T08:09:56.782Z,95111.34
2023-05-14T08:12:25.127Z,95107.44
2023-05-14T08:14:54.575Z,95103.53
2023-05-14T08:17:22.816Z,95109.94
2023-05-14T08:19:50.766Z,95122.63
2023-05-14T08:22:18.949Z,95111.03
2023-05-14T08:24:46.841Z,95112.38
2023-05-14T08:27:14.781Z,95106.09
2023-05-14T08:29:42.695Z,95106.91
2023-05-14T08:32:22.576Z,95114.38
2023-05-14T08:34:51.736Z,95121.50
2023-05-14T08:37:20.401Z,95123.09
2023-05-14T08:39:48.459Z,95129.44
2023-05-14T08:42:21.734Z,95122.31
2023-05-14T08:44:53.946Z,95120.41
2023-05-14T08:47:25.166Z,95124.91
2023-05-14T08:50:02.431Z,95125.47
2023-05-14T08:52:31.339Z,95120.69
2023-05-14T08:55:02.101Z,95122.50
2023-05-14T08:57:33.020Z,95119.00
2023-05-14T09:00:03.689Z,95123.38
2023-05-14T09:02:34.539Z,95113.88
2023-05-14T09:05:03.963Z,95115.44
2023-05-14T09:07:32.590Z,95113.81
2023-05-14T09:10:02.034Z,95114.00
2023-05-14T09:12:31.136Z,95120.56
2023-05-14T09:14:59.323Z,95114.75
2023-05-14T09:17:28.516Z,95111.31
2023-05-14T09:19:59.396Z,95112.69
2023-05-14T09:22:32.052Z,95111.91
2023-05-14T09:25:06.091Z,95112.22
2023-05-14T09:27:35.198Z,95112.44
2023-05-14T09:30:06.973Z,95114.31
2023-05-14T09:32:42.554Z,95113.75
2023-05-14T09:35:18.890Z,95109.03
2023-05-14T09:37:48.989Z,95116.41
2023-05-14T09:40:18.711Z,95105.06
2023-05-14T09:42:48.421Z,95108.00
2023-05-14T09:45:17.565Z,95111.72
2023-05-14T09:47:46.332Z,95108.00
2023-05-14T09:50:16.302Z,95109.06
2023-05-14T09:52:44.433Z,95110.16
2023-05-14T09:55:12.466Z,95106.50
2023-05-14T09:57:41.508Z,95104.41
2023-05-14T10:00:12.814Z,95101.53
2023-05-14T10:02:46.070Z,95100.53
2023-05-14T10:05:16.697Z,95099.16
2023-05-14T10:07:49.466Z,95099.97
2023-05-14T10:10:20.713Z,95098.41
2023-05-14T10:12:54.215Z,95097.09
2023-05-14T10:15:31.414Z,95094.25
2023-05-14T10:18:04.773Z,95095.06
2023-05-14T10:20:36.261Z,95100.88
2023-05-14T10:23:04.575Z,95110.38
2023-05-14T10:25:33.568Z,95107.19
2023-05-14T10:28:03.206Z,95101.06
2023-05-14T10:30:31.381Z,95101.63
2023-05-14T10:33:10.619Z,95109.81
2023-05-14T10:36:02.451Z,95098.69
2023-05-14T10:38:33.119Z,95107.44
2023-05-14T10:41:02.986Z,95111.72
2023-05-14T10:43:32.983Z,95111.97
2023-05-14T10:46:02.853Z,95110.63
2023-05-14T10:48:30.931Z,95108.47
2023-05-14T10:51:01.886Z,95109.00
2023-05-14T10:53:38.037Z,95109.53
2023-05-14T10:56:09.083Z,95105.84
2023-05-14T10:58:38.776Z,95101.59
2023-05-14T11:01:08.999Z,95101.88
2023-05-14T11:03:42.916Z,95102.94
2023-05-14T11:06:14.382Z,95094.25
2023-05-14T11:08:44.010Z,95093.69
2023-05-14T11:11:12.441Z,95096.09
2023-05-14T11:13:40.590Z,95102.66
2023-05-14T11:18:41.888Z,95098.94
2023-05-14T11:21:10.137Z,95094.44
2023-05-14T11:23:39.722Z,95093.13
2023-05-14T11:26:08.589Z,95088.13
2023-05-14T11:28:36.820Z,95083.88
2023-05-14T11:31:05.909Z,95085.75
2023-05-14T11:33:33.969Z,95075.97
2023-05-14T11:36:02.179Z,95065.13
2023-05-14T11:38:30.249Z,95065.41
2023-05-14T11:41:00.574Z,95070.16
2023-05-14T11:43:29.542Z,95068.56
2023-05-14T11:45:58.172Z,95074.63
2023-05-14T11:48:26.299Z,95065.91
2023-05-14T11:50:54.727Z,95065.16
2023-05-14T11:53:27.555Z,95066.47
2023-05-14T11:55:57.645Z,95060.66
2023-05-14T11:58:27.696Z,95064.91
2023-05-14T12:00:57.024Z,95068.41
2023-05-14T12:03:29.235Z,95058.91
2023-05-14T12:05:58.332Z,95053.63
2023-05-14T12:08:29.023Z,95040.66
2023-05-14T12:10:59.808Z,95037.53
2023-05-14T12:13:31.342Z,95034.59
2023-05-14T12:16:02.263Z,95031.91
2023-05-14T12:18:33.240Z,95036.13
2023-05-14T12:21:04.296Z,95027.53
2023-05-14T12:23:33.764Z,95033.53
2023-05-14T12:26:06.934Z,95025.50
2023-05-14T12:28:38.619Z,95027.25
2023-05-14T12:31:07.295Z,95024.53
2023-05-14T12:33:35.323Z,95025.75
2023-05-14T12:38:34.232Z,95021.00
2023-05-14T12:41:02.362Z,95014.88
2023-05-14T12:43:32.380Z,95010.38
2023-05-14T12:46:01.813Z,95012.19
2023-05-14T12:48:29.912Z,95007.41
2023-05-14T12:50:57.969Z,94997.72
2023-05-14T12:53:26.422Z,94993.22
2023-05-14T12:55:56.147Z,94991.16
2023-05-14T12:58:25.208Z,94988.16
2023-05-14T13:00:53.339Z,94980.03
2023-05-14T13:03:22.824Z,94980.25
2023-05-14T13:05:52.047Z,94977.16
2023-05-14T13:08:21.547Z,94982.97
2023-05-14T13:10:49.712Z,94973.38
2023-05-14T13:13:18.105Z,94971.22
2023-05-14T13:15:47.089Z,94968.03
2023-05-14T13:18:15.106Z,94960.13
2023-05-14T13:20:44.616Z,94953.00
2023-05-14T13:23:12.742Z,94955.34
2023-05-14T13:25:42.297Z,94957.22
2023-05-14T13:28:10.998Z,94960.47
2023-05-14T13:30:39.469Z,94952.94
2023-05-14T13:33:07.745Z,94945.13
2023-05-14T13:35:36.187Z,94945.34
2023-05-14T13:38:05.511Z,94946.50
2023-05-14T13:40:33.806Z,94942.78
2023-05-14T13:43:02.275Z,94937.25
2023-05-14T13:45:30.858Z,94932.44
2023-05-14T13:47:59.130Z,94923.00
2023-05-14T13:50:27.367Z,94929.75
2023-05-14T13:52:55.578Z,94923.22
2023-05-14T13:55:25.168Z,94918.78
2023-05-14T13:57:53.645Z,94913.28
2023-05-14T14:00:21.966Z,94912.69
2023-05-14T14:02:50.142Z,94911.84
2023-05-14T14:05:18.217Z,94910.41
2023-05-14T14:07:47.560Z,94910.78
2023-05-14T14:10:15.714Z,94902.72
2023-05-14T14:12:45.300Z,94895.25
2023-05-14T14:15:13.907Z,94892.09
2023-05-14T14:17:44.007Z,94895.03
2023-05-14T14:20:13.652Z,94887.25
2023-05-14T14:22:44.086Z,94889.50
2023-05-14T14:25:13.628Z,94879.16
2023-05-14T14:27:41.938Z,94879.94
2023-05-14T14:30:16.638Z,94879.94
2023-05-14T14:32:45.947Z,94878.84
2023-05-14T14:35:15.663Z,94870.00
2023-05-14T14:37:49.043Z,94863.31
2023-05-14T14:40:18.184Z,94865.91
2023-05-14T14:42:46.590Z,94851.97
2023-05-14T14:45:16.044Z,94852.97
2023-05-14T14:47:46.392Z,94858.38
2023-05-14T14:50:14.869Z,94854.63
2023-05-14T14:52:45.705Z,94860.25
2023-05-14T14:55:14.033Z,94853.34
2023-05-14T14:57:42.837Z,94853.84
2023-05-14T15:00:12.233Z,94860.88
2023-05-14T15:02:43.003Z,94859.50
2023-05-14T15:05:11.110Z,94856.75
2023-05-14T15:07:39.547Z,94855.00
2023-05-14T15:10:09.552Z,94845.06
2023-05-14T15:12:37.721Z,94854.63
2023-05-14T15:15:07.050Z,94848.81
2023-05-14T15:17:35.206Z,94840.22
2023-05-14T15:20:07.494Z,94844.31
2023-05-14T15:22:35.943Z,94838.78
2023-05-14T15:25:05.041Z,94833.09
2023-05-14T15:27:33.044Z,94830.94
2023-05-14T15:30:00.972Z,94831.72
2023-05-14T15:32:31.255Z,94834.88
2023-05-14T15:34:59.672Z,94832.75
2023-05-14T15:37:29.070Z,94841.63
2023-05-14T15:39:56.961Z,94837.66
2023-05-14T15:42:25.621Z,94829.66
2023-05-14T15:44:53.864Z,94825.44
2023-05-14T15:47:21.788Z,94833.91
2023-05-14T15:49:49.704Z,94826.63
2023-05-14T15:52:17.689Z,94829.50
2023-05-14T15:54:47.992Z,94819.56
2023-05-14T15:57:19.187Z,94812.84
2023-05-14T15:59:49.289Z,94817.16
2023-05-14T16:02:17.502Z,94812.75
2023-05-14T16:04:46.396Z,94821.25
2023-05-14T16:07:14.418Z,94820.75
2023-05-14T16:09:42.690Z,94820.06
2023-05-14T16:14:42.102Z,94827.72
2023-05-14T16:17:10.428Z,94833.84
2023-05-14T16:19:40.499Z,94850.97
2023-05-14T16:22:08.987Z,94863.00
2023-05-14T16:24:37.750Z,94864.06
2023-05-14T16:27:06.209Z,94864.44
2023-05-14T16:29:35.536Z,94876.41
2023-05-14T16:32:03.744Z,94879.56
2023-05-14T16:34:31.851Z,94879.06
2023-05-14T16:37:00.448Z,94887.09
2023-05-14T16:39:28.464Z,94883.94
2023-05-14T16:41:56.382Z,94887.91
2023-05-14T16:44:24.265Z,94885.34
2023-05-14T16:46:53.555Z,94883.50
2023-05-14T16:49:22.392Z,94889.84
2023-05-14T16:51:50.947Z,94888.81
2023-05-14T16:54:18.990Z,94891.41
2023-05-14T16:56:48.388Z,94894.88
2023-05-14T16:59:17.346Z,94896.19
2023-05-14T17:01:48.173Z,94904.13
2023-05-14T17:04:17.869Z,94906.47
2023-05-14T17:06:47.497Z,94901.97
2023-05-14T17:09:16.625Z,94895.41
2023-05-14T17:11:44.960Z,94900.13
2023-05-14T17:14:13.187Z,94904.06
2023-05-14T17:16:42.530Z,94899.84
2023-05-14T17:19:11.533Z,94905.16
2023-05-14T17:21:41.170Z,94905.66
2023-05-14T17:24:09.324Z,94912.28
2023-05-14T17:26:37.999Z,94906.13
2023-05-14T17:29:06.583Z,94907.13
2023-05-14T17:31:35.224Z,94914.38
2023-05-14T17:34:04.039Z,94918.81
2023-05-14T17:36:32.324Z,94922.03
2023-05-14T17:39:02.321Z,94913.59
2023-05-14T17:41:31.956Z,94924.00
2023-05-14T17:44:00.229Z,94918.09
2023-05-14T17:46:28.537Z,94921.22
2023-05-14T17:48:58.459Z,94913.88
2023-05-14T17:51:29.066Z,94919.34
2023-05-14T17:53:57.652Z,94915.94
2023-05-14T17:56:27.732Z,94920.16
2023-05-14T17:58:55.713Z,94922.50
2023-05-14T18:01:23.962Z,94925.41
2023-05-14T18:03:52.240Z,94923.88
2023-05-14T18:06:20.653Z,94919.19
2023-05-14T18:08:49.948Z,94918.13
2023-05-14T18:11:19.676Z,94918.88
2023-05-14T18:13:49.457Z,94923.69
2023-05-14T18:16:17.554Z,94912.84
2023-05-14T18:18:46.694Z,94918.13
2023-05-14T18:21:14.878Z,94912.53
2023-05-14T18:23:42.893Z,94914.13
2023-05-14T18:26:11.136Z,94919.97
2023-05-14T18:28:39.554Z,94919.22
2023-05-14T18:31:10.973Z,94916.09
2023-05-14T18:33:38.990Z,94917.72
2023-05-14T18:36:07.363Z,94920.09
2023-05-14T18:38:36.590Z,94920.91
2023-05-14T18:41:04.698Z,94929.34
2023-05-14T18:43:32.613Z,94919.03
2023-05-14T18:46:01.105Z,94923.53
2023-05-14T18:48:31.887Z,94930.41
2023-05-14T18:51:01.301Z,94926.44
2023-05-14T18:53:29.980Z,94925.66
2023-05-14T18:56:00.034Z,94925.66
2023-05-14T18:58:28.208Z,94924.34
2023-05-14T19:00:59.174Z,94924.06
2023-05-14T19:03:27.564Z,94924.06
2023-05-14T19:05:57.712Z,94925.13
2023-05-14T19:08:25.648Z,94929.84
2023-05-14T19:10:54.308Z,94926.69
2023-05-14T19:13:23.740Z,94928.81
2023-05-14T19:15:51.999Z,94928.25
2023-05-14T19:18:21.455Z,94930.03
2023-05-14T19:20:50.090Z,94935.00
2023-05-14T19:23:19.631Z,94935.22
2023-05-14T19:25:48.228Z,94930.66
2023-05-14T19:28:16.789Z,94931.94
2023-05-14T19:30:45.124Z,94925.34
2023-05-14T19:33:13.234Z,94927.16
2023-05-14T19:35:41.464Z,94935.28
2023-05-14T19:38:10.831Z,94942.94
2023-05-14T19:40:40.376Z,94942.13
2023-05-14T19:43:09.371Z,94933.66
2023-05-14T19:45:39.381Z,94941.84
2023-05-14T19:48:07.502Z,94938.66
2023-05-14T19:50:37.390Z,94948.13
2023-05-14T19:53:05.517Z,94944.69
2023-05-14T19:55:33.795Z,94940.72
2023-05-14T19:58:03.666Z,94944.41
2023-05-14T20:00:32.110Z,94946.53
2023-05-14T20:03:00.839Z,94948.63
2023-05-14T20:05:29.618Z,94947.84
2023-05-14T20:07:58.034Z,94943.38
2023-05-14T20:10:28.318Z,94941.53
2023-05-14T20:12:56.444Z,94952.28
2023-05-14T20:15:27.071Z,94948.00
2023-05-14T20:17:56.789Z,94946.16
2023-05-14T20:20:26.298Z,94946.72
2023-05-14T20:22:55.107Z,94945.66
2023-05-14T20:25:25.146Z,94939.06
2023-05-14T20:27:55.756Z,94939.59
2023-05-14T20:30:25.541Z,94945.66
2023-05-14T20:32:54.172Z,94945.13
2023-05-14T20:35:22.801Z,94950.13
2023-05-14T20:37:51.375Z,94943.84
2023-05-14T20:40:19.597Z,94948.84
2023-05-14T20:42:50.515Z,94939.88
2023-05-14T20:45:18.994Z,94945.13
2023-05-14T20:47:48.475Z,94953.53
2023-05-14T20:50:16.683Z,94945.06
2023-05-14T20:52:45.312Z,94945.63
2023-05-14T20:55:14.771Z,94943.53
2023-05-14T20:57:43.461Z,94940.16
2023-05-14T21:00:13.247Z,94945.16
2023-05-14T21:02:41.699Z,94938.31
2023-05-14T21:05:13.862Z,94941.78
2023-05-14T21:07:41.993Z,94933.59
2023-05-14T21:10:10.820Z,94927.53
2023-05-14T21:12:38.706Z,94929.38
2023-05-14T21:15:07.900Z,94927.53
2023-05-14T21:17:36.291Z,94927.28
2023-05-14T21:20:04.780Z,94922.50
2023-05-14T21:22:34.301Z,94925.91
2023-05-14T21:25:02.680Z,94927.50
2023-05-14T21:27:31.065Z,94924.59
2023-05-14T21:29:59.048Z,94927.22
2023-05-14T21:32:27.838Z,94921.97
2023-05-14T21:34:56.284Z,94925.91
2023-05-14T21:37:24.230Z,94929.38
2023-05-14T21:39:53.747Z,94923.06
2023-05-14T21:42:21.921Z,94915.13
2023-05-14T21:44:50.041Z,94926.19
2023-05-14T21:47:19.870Z,94928.81
2023-05-14T21:49:48.313Z,94924.34
2023-05-14T21:52:17.171Z,94933.56
2023-05-14T21:54:45.829Z,94931.19
2023-05-14T21:57:15.498Z,94928.28
2023-05-14T21:59:43.673Z,94919.59
2023-05-14T22:02:12.101Z,94916.94
2023-05-14T22:04:40.534Z,94913.50
2023-05-14T22:07:08.664Z,94909.28
2023-05-14T22:09:36.937Z,94910.00
2023-05-14T22:12:08.045Z,94906.53
2023-05-14T22:14:37.869Z,94916.78
2023-05-14T22:17:07.421Z,94916.25
2023-05-14T22:19:35.520Z,94920.47
2023-05-14T22:22:03.585Z,94926.25
2023-05-14T22:24:31.916Z,94924.41
2023-05-14T22:27:00.154Z,94920.22
2023-05-14T22:29:28.605Z,94921.06
2023-05-14T22:31:58.446Z,94919.75
2023-05-14T22:34:26.901Z,94917.63
2023-05-14T22:36:55.090Z,94924.19
2023-05-14T22:39:23.457Z,94921.31
2023-05-14T22:41:55.032Z,94917.63
2023-05-14T22:44:23.470Z,94916.59
2023-05-14T22:46:52.479Z,94915.53
2023-05-14T22:49:22.244Z,94909.16
2023-05-14T22:51:52.664Z,94904.16
2023-05-14T22:54:22.751Z,94912.63
2023-05-14T22:56:51.308Z,94907.56
2023-05-14T22:59:21.477Z,94904.41
2023-05-14T23:01:51.291Z,94907.03
2023-05-14T23:04:19.515Z,94913.63
2023-05-14T23:06:49.787Z,94902.81
2023-05-14T23:09:18.052Z,94899.38
2023-05-14T23:11:46.206Z,94893.84
2023-05-14T23:14:14.825Z,94893.31
2023-05-14T23:16:44.579Z,94890.94
2023-05-14T23:19:13.439Z,94892.81
2023-05-14T23:21:41.810Z,94898.34
2023-05-14T23:24:12.809Z,94892.00
2023-05-14T23:26:41.265Z,94890.16
2023-05-14T23:29:09.263Z,94881.44
2023-05-14T23:31:37.608Z,94883.53
2023-05-14T23:34:05.571Z,94873.72
2023-05-14T23:36:34.034Z,94873.97
2023-05-14T23:39:02.298Z,94876.38
2023-05-14T23:41:31.796Z,94878.22
2023-05-14T23:43:59.707Z,94872.44
2023-05-14T23:46:28.474Z,94869.03
2023-05-14T23:48:57.178Z,94869.50
2023-05-14T23:51:25.919Z,94863.44
2023-05-14T23:53:58.304Z,94866.06
2023-05-14T23:56:29.405Z,94864.22
2023-05-14T23:58:58.954Z,94871.09
